sensor_id;sensor_type;location;lat;lon;timestamp;P1;durP1;ratioP1;P2;durP2;ratioP2
72649;SDS011;61467;50.674;4.618;2023-08-30T00:02:03;11.35;;;5.53;;
72649;SDS011;61467;50.674;4.618;2023-08-30T00:04:30;12.35;;;5.57;;
72649;SDS011;61467;50.674;4.618;2023-08-30T00:06:58;9.68;;;5.00;;
72649;SDS011;61467;50.674;4.618;2023-08-30T00:09:25;10.35;;;5.63;;
72649;SDS011;61467;50.674;4.618;2023-08-30T00:11:52;11.00;;;5.87;;
72649;SDS011;61467;50.674;4.618;2023-08-30T00:14:18;10.52;;;5.85;;
72649;SDS011;61467;50.674;4.618;2023-08-30T00:16:45;10.25;;;6.00;;
72649;SDS011;61467;50.674;4.618;2023-08-30T00:19:13;14.32;;;6.20;;
72649;SDS011;61467;50.674;4.618;2023-08-30T00:21:41;11.63;;;6.10;;
72649;SDS011;61467;50.674;4.618;2023-08-30T00:24:08;10.93;;;5.40;;
72649;SDS011;61467;50.674;4.618;2023-08-30T00:26:35;15.85;;;5.75;;
72649;SDS011;61467;50.674;4.618;2023-08-30T00:29:02;11.95;;;6.43;;
72649;SDS011;61467;50.674;4.618;2023-08-30T00:31:29;12.07;;;6.03;;
72649;SDS011;61467;50.674;4.618;2023-08-30T00:33:55;10.85;;;6.82;;
72649;SDS011;61467;50.674;4.618;2023-08-30T00:36:24;12.33;;;7.10;;
72649;SDS011;61467;50.674;4.618;2023-08-30T00:38:50;10.65;;;6.57;;
72649;SDS011;61467;50.674;4.618;2023-08-30T00:41:17;11.77;;;7.22;;
72649;SDS011;61467;50.674;4.618;2023-08-30T00:43:45;14.75;;;6.90;;
72649;SDS011;61467;50.674;4.618;2023-08-30T00:46:13;11.50;;;7.10;;
72649;SDS011;61467;50.674;4.618;2023-08-30T00:48:43;14.03;;;7.50;;
72649;SDS011;61467;50.674;4.618;2023-08-30T00:51:11;12.00;;;6.90;;
72649;SDS011;61467;50.674;4.618;2023-08-30T00:53:39;15.23;;;7.75;;
72649;SDS011;61467;50.674;4.618;2023-08-30T00:56:11;13.45;;;7.57;;
72649;SDS011;61467;50.674;4.618;2023-08-30T00:58:38;10.95;;;6.93;;
72649;SDS011;61467;50.674;4.618;2023-08-30T01:01:05;13.37;;;7.77;;
72649;SDS011;61467;50.674;4.618;2023-08-30T01:03:33;12.45;;;7.68;;
72649;SDS011;61467;50.674;4.618;2023-08-30T01:06:00;15.10;;;7.82;;
72649;SDS011;61467;50.674;4.618;2023-08-30T01:08:27;14.60;;;7.90;;
72649;SDS011;61467;50.674;4.618;2023-08-30T01:10:57;13.75;;;7.68;;
72649;SDS011;61467;50.674;4.618;2023-08-30T01:13:27;14.23;;;8.30;;
72649;SDS011;61467;50.674;4.618;2023-08-30T01:15:56;12.50;;;7.45;;
72649;SDS011;61467;50.674;4.618;2023-08-30T01:18:25;16.88;;;9.38;;
72649;SDS011;61467;50.674;4.618;2023-08-30T01:20:55;15.80;;;8.45;;
72649;SDS011;61467;50.674;4.618;2023-08-30T01:23:25;13.00;;;7.90;;
72649;SDS011;61467;50.674;4.618;2023-08-30T01:26:04;15.10;;;7.90;;
72649;SDS011;61467;50.674;4.618;2023-08-30T01:28:36;15.43;;;7.60;;
72649;SDS011;61467;50.674;4.618;2023-08-30T01:31:06;15.93;;;8.45;;
72649;SDS011;61467;50.674;4.618;2023-08-30T01:33:34;15.02;;;8.43;;
72649;SDS011;61467;50.674;4.618;2023-08-30T01:36:02;13.82;;;8.10;;
72649;SDS011;61467;50.674;4.618;2023-08-30T01:38:31;14.27;;;7.73;;
72649;SDS011;61467;50.674;4.618;2023-08-30T01:40:59;14.35;;;7.97;;
72649;SDS011;61467;50.674;4.618;2023-08-30T01:43:26;13.48;;;7.55;;
72649;SDS011;61467;50.674;4.618;2023-08-30T01:45:56;15.23;;;7.97;;
72649;SDS011;61467;50.674;4.618;2023-08-30T01:48:24;13.25;;;7.40;;
72649;SDS011;61467;50.674;4.618;2023-08-30T01:50:53;13.50;;;8.17;;
72649;SDS011;61467;50.674;4.618;2023-08-30T01:53:24;14.13;;;8.27;;
72649;SDS011;61467;50.674;4.618;2023-08-30T01:55:51;14.23;;;7.70;;
72649;SDS011;61467;50.674;4.618;2023-08-30T01:58:18;15.55;;;8.30;;
72649;SDS011;61467;50.674;4.618;2023-08-30T02:00:45;12.80;;;7.75;;
72649;SDS011;61467;50.674;4.618;2023-08-30T02:03:14;13.17;;;7.13;;
72649;SDS011;61467;50.674;4.618;2023-08-30T02:05:43;11.52;;;6.55;;
72649;SDS011;61467;50.674;4.618;2023-08-30T02:08:18;12.40;;;6.85;;
72649;SDS011;61467;50.674;4.618;2023-08-30T02:10:48;11.80;;;6.60;;
72649;SDS011;61467;50.674;4.618;2023-08-30T02:13:19;12.27;;;6.95;;
72649;SDS011;61467;50.674;4.618;2023-08-30T02:15:51;12.30;;;6.30;;
72649;SDS011;61467;50.674;4.618;2023-08-30T02:18:21;14.27;;;6.70;;
72649;SDS011;61467;50.674;4.618;2023-08-30T02:20:48;12.35;;;6.40;;
72649;SDS011;61467;50.674;4.618;2023-08-30T02:23:15;12.68;;;6.72;;
72649;SDS011;61467;50.674;4.618;2023-08-30T02:25:42;12.60;;;6.80;;
72649;SDS011;61467;50.674;4.618;2023-08-30T02:28:09;14.47;;;6.93;;
72649;SDS011;61467;50.674;4.618;2023-08-30T02:30:36;13.65;;;6.95;;
72649;SDS011;61467;50.674;4.618;2023-08-30T02:33:03;15.15;;;6.65;;
72649;SDS011;61467;50.674;4.618;2023-08-30T02:35:31;16.05;;;7.47;;
72649;SDS011;61467;50.674;4.618;2023-08-30T02:37:58;12.38;;;7.47;;
72649;SDS011;61467;50.674;4.618;2023-08-30T02:40:25;11.97;;;6.57;;
72649;SDS011;61467;50.674;4.618;2023-08-30T02:42:52;11.93;;;6.40;;
72649;SDS011;61467;50.674;4.618;2023-08-30T02:45:18;15.10;;;7.05;;
72649;SDS011;61467;50.674;4.618;2023-08-30T02:47:45;11.27;;;6.22;;
72649;SDS011;61467;50.674;4.618;2023-08-30T02:50:12;13.57;;;6.60;;
72649;SDS011;61467;50.674;4.618;2023-08-30T02:52:40;11.47;;;6.23;;
72649;SDS011;61467;50.674;4.618;2023-08-30T02:55:07;10.65;;;6.00;;
72649;SDS011;61467;50.674;4.618;2023-08-30T02:57:35;12.70;;;6.60;;
72649;SDS011;61467;50.674;4.618;2023-08-30T03:00:02;10.73;;;6.25;;
72649;SDS011;61467;50.674;4.618;2023-08-30T03:02:31;11.70;;;6.47;;
72649;SDS011;61467;50.674;4.618;2023-08-30T03:04:58;11.77;;;6.27;;
72649;SDS011;61467;50.674;4.618;2023-08-30T03:07:25;13.70;;;6.28;;
72649;SDS011;61467;50.674;4.618;2023-08-30T03:09:56;10.85;;;5.93;;
72649;SDS011;61467;50.674;4.618;2023-08-30T03:12:23;12.13;;;6.18;;
72649;SDS011;61467;50.674;4.618;2023-08-30T03:14:50;11.00;;;7.03;;
72649;SDS011;61467;50.674;4.618;2023-08-30T03:17:17;12.27;;;6.50;;
72649;SDS011;61467;50.674;4.618;2023-08-30T03:19:44;10.77;;;6.07;;
72649;SDS011;61467;50.674;4.618;2023-08-30T03:22:12;14.43;;;6.65;;
72649;SDS011;61467;50.674;4.618;2023-08-30T03:24:38;11.02;;;6.03;;
72649;SDS011;61467;50.674;4.618;2023-08-30T03:27:07;12.80;;;6.55;;
72649;SDS011;61467;50.674;4.618;2023-08-30T03:29:33;10.40;;;5.37;;
72649;SDS011;61467;50.674;4.618;2023-08-30T03:32:00;13.73;;;6.35;;
72649;SDS011;61467;50.674;4.618;2023-08-30T03:34:27;13.95;;;5.78;;
72649;SDS011;61467;50.674;4.618;2023-08-30T03:36:54;12.85;;;6.35;;
72649;SDS011;61467;50.674;4.618;2023-08-30T03:39:21;12.10;;;6.28;;
72649;SDS011;61467;50.674;4.618;2023-08-30T03:41:48;11.43;;;5.80;;
72649;SDS011;61467;50.674;4.618;2023-08-30T03:44:17;12.13;;;5.30;;
72649;SDS011;61467;50.674;4.618;2023-08-30T03:46:44;11.20;;;6.38;;
72649;SDS011;61467;50.674;4.618;2023-08-30T03:49:11;12.13;;;5.68;;
72649;SDS011;61467;50.674;4.618;2023-08-30T03:51:39;11.35;;;5.90;;
72649;SDS011;61467;50.674;4.618;2023-08-30T03:54:06;11.37;;;5.97;;
72649;SDS011;61467;50.674;4.618;2023-08-30T03:56:33;9.82;;;5.35;;
72649;SDS011;61467;50.674;4.618;2023-08-30T03:59:00;11.93;;;5.88;;
72649;SDS011;61467;50.674;4.618;2023-08-30T04:01:28;10.20;;;5.28;;
72649;SDS011;61467;50.674;4.618;2023-08-30T04:03:56;12.77;;;6.13;;
72649;SDS011;61467;50.674;4.618;2023-08-30T04:06:23;12.70;;;5.80;;
72649;SDS011;61467;50.674;4.618;2023-08-30T04:08:49;10.30;;;5.18;;
72649;SDS011;61467;50.674;4.618;2023-08-30T04:11:16;13.35;;;5.50;;
72649;SDS011;61467;50.674;4.618;2023-08-30T04:13:43;11.98;;;4.72;;
72649;SDS011;61467;50.674;4.618;2023-08-30T04:16:10;11.23;;;5.60;;
72649;SDS011;61467;50.674;4.618;2023-08-30T04:18:38;11.53;;;5.43;;
72649;SDS011;61467;50.674;4.618;2023-08-30T04:21:05;12.05;;;5.55;;
72649;SDS011;61467;50.674;4.618;2023-08-30T04:23:33;10.40;;;5.43;;
72649;SDS011;61467;50.674;4.618;2023-08-30T04:26:00;10.02;;;5.43;;
72649;SDS011;61467;50.674;4.618;2023-08-30T04:28:31;12.90;;;5.53;;
72649;SDS011;61467;50.674;4.618;2023-08-30T04:30:58;11.30;;;5.27;;
72649;SDS011;61467;50.674;4.618;2023-08-30T04:33:25;11.50;;;5.00;;
72649;SDS011;61467;50.674;4.618;2023-08-30T04:35:54;11.85;;;4.82;;
72649;SDS011;61467;50.674;4.618;2023-08-30T04:38:21;11.50;;;4.50;;
72649;SDS011;61467;50.674;4.618;2023-08-30T04:40:48;9.85;;;4.88;;
72649;SDS011;61467;50.674;4.618;2023-08-30T04:43:15;9.40;;;4.47;;
72649;SDS011;61467;50.674;4.618;2023-08-30T04:45:42;8.50;;;4.10;;
72649;SDS011;61467;50.674;4.618;2023-08-30T04:48:09;8.82;;;4.20;;
72649;SDS011;61467;50.674;4.618;2023-08-30T04:50:35;9.55;;;3.90;;
72649;SDS011;61467;50.674;4.618;2023-08-30T04:53:05;8.20;;;3.83;;
72649;SDS011;61467;50.674;4.618;2023-08-30T04:55:32;8.30;;;3.70;;
72649;SDS011;61467;50.674;4.618;2023-08-30T04:57:59;7.88;;;3.47;;
72649;SDS011;61467;50.674;4.618;2023-08-30T05:00:26;8.45;;;3.17;;
72649;SDS011;61467;50.674;4.618;2023-08-30T05:02:52;9.05;;;3.10;;
72649;SDS011;61467;50.674;4.618;2023-08-30T05:05:19;8.30;;;2.83;;
72649;SDS011;61467;50.674;4.618;2023-08-30T05:07:46;8.93;;;3.30;;
72649;SDS011;61467;50.674;4.618;2023-08-30T05:10:14;7.10;;;3.03;;
72649;SDS011;61467;50.674;4.618;2023-08-30T05:12:41;9.57;;;3.20;;
72649;SDS011;61467;50.674;4.618;2023-08-30T05:15:13;8.70;;;2.85;;
72649;SDS011;61467;50.674;4.618;2023-08-30T05:17:40;7.93;;;2.70;;
72649;SDS011;61467;50.674;4.618;2023-08-30T05:20:07;7.10;;;3.13;;
72649;SDS011;61467;50.674;4.618;2023-08-30T05:22:34;6.43;;;2.58;;
72649;SDS011;61467;50.674;4.618;2023-08-30T05:25:01;7.70;;;3.05;;
72649;SDS011;61467;50.674;4.618;2023-08-30T05:27:30;7.68;;;3.20;;
72649;SDS011;61467;50.674;4.618;2023-08-30T05:29:56;9.63;;;3.50;;
72649;SDS011;61467;50.674;4.618;2023-08-30T05:32:23;8.23;;;3.30;;
72649;SDS011;61467;50.674;4.618;2023-08-30T05:34:50;7.70;;;3.40;;
72649;SDS011;61467;50.674;4.618;2023-08-30T05:37:18;6.85;;;2.47;;
72649;SDS011;61467;50.674;4.618;2023-08-30T05:39:45;7.93;;;2.90;;
72649;SDS011;61467;50.674;4.618;2023-08-30T05:42:12;8.57;;;3.22;;
72649;SDS011;61467;50.674;4.618;2023-08-30T05:44:40;7.63;;;3.07;;
72649;SDS011;61467;50.674;4.618;2023-08-30T05:47:08;7.35;;;3.38;;
72649;SDS011;61467;50.674;4.618;2023-08-30T05:49:39;8.50;;;3.47;;
72649;SDS011;61467;50.674;4.618;2023-08-30T05:52:07;8.50;;;3.72;;
72649;SDS011;61467;50.674;4.618;2023-08-30T05:54:34;8.30;;;3.10;;
72649;SDS011;61467;50.674;4.618;2023-08-30T05:57:03;8.23;;;2.83;;
72649;SDS011;61467;50.674;4.618;2023-08-30T05:59:31;7.93;;;3.08;;
72649;SDS011;61467;50.674;4.618;2023-08-30T06:02:01;7.03;;;2.83;;
72649;SDS011;61467;50.674;4.618;2023-08-30T06:04:29;6.28;;;2.60;;
72649;SDS011;61467;50.674;4.618;2023-08-30T06:06:56;10.43;;;2.95;;
72649;SDS011;61467;50.674;4.618;2023-08-30T06:09:24;7.93;;;2.93;;
72649;SDS011;61467;50.674;4.618;2023-08-30T06:11:51;7.90;;;3.30;;
72649;SDS011;61467;50.674;4.618;2023-08-30T06:14:18;7.25;;;2.50;;
72649;SDS011;61467;50.674;4.618;2023-08-30T06:16:45;7.82;;;2.53;;
72649;SDS011;61467;50.674;4.618;2023-08-30T06:19:13;7.97;;;2.83;;
72649;SDS011;61467;50.674;4.618;2023-08-30T06:21:40;5.67;;;2.10;;
72649;SDS011;61467;50.674;4.618;2023-08-30T06:24:07;6.30;;;2.20;;
72649;SDS011;61467;50.674;4.618;2023-08-30T06:26:34;6.43;;;2.38;;
72649;SDS011;61467;50.674;4.618;2023-08-30T06:29:00;6.38;;;2.40;;
72649;SDS011;61467;50.674;4.618;2023-08-30T06:31:28;7.75;;;2.53;;
72649;SDS011;61467;50.674;4.618;2023-08-30T06:33:54;7.60;;;2.33;;
72649;SDS011;61467;50.674;4.618;2023-08-30T06:36:23;8.18;;;2.80;;
72649;SDS011;61467;50.674;4.618;2023-08-30T06:38:50;6.68;;;2.25;;
72649;SDS011;61467;50.674;4.618;2023-08-30T06:41:19;8.43;;;2.17;;
72649;SDS011;61467;50.674;4.618;2023-08-30T06:43:46;8.80;;;2.30;;
72649;SDS011;61467;50.674;4.618;2023-08-30T06:46:13;5.70;;;2.13;;
72649;SDS011;61467;50.674;4.618;2023-08-30T06:48:40;6.40;;;2.25;;
72649;SDS011;61467;50.674;4.618;2023-08-30T06:51:09;6.03;;;2.20;;
72649;SDS011;61467;50.674;4.618;2023-08-30T06:53:38;7.53;;;2.00;;
72649;SDS011;61467;50.674;4.618;2023-08-30T06:56:05;7.20;;;1.95;;
72649;SDS011;61467;50.674;4.618;2023-08-30T06:58:33;6.27;;;1.77;;
72649;SDS011;61467;50.674;4.618;2023-08-30T07:01:01;6.15;;;1.80;;
72649;SDS011;61467;50.674;4.618;2023-08-30T07:03:28;6.53;;;1.92;;
72649;SDS011;61467;50.674;4.618;2023-08-30T07:05:55;7.18;;;2.25;;
72649;SDS011;61467;50.674;4.618;2023-08-30T07:08:22;6.57;;;2.13;;
72649;SDS011;61467;50.674;4.618;2023-08-30T07:10:53;7.03;;;2.40;;
72649;SDS011;61467;50.674;4.618;2023-08-30T07:13:20;7.35;;;2.40;;
72649;SDS011;61467;50.674;4.618;2023-08-30T07:15:46;5.88;;;2.30;;
72649;SDS011;61467;50.674;4.618;2023-08-30T07:18:14;8.10;;;2.53;;
72649;SDS011;61467;50.674;4.618;2023-08-30T07:20:41;9.15;;;2.97;;
72649;SDS011;61467;50.674;4.618;2023-08-30T07:23:08;7.60;;;2.73;;
72649;SDS011;61467;50.674;4.618;2023-08-30T07:25:36;6.97;;;3.08;;
72649;SDS011;61467;50.674;4.618;2023-08-30T07:28:04;8.15;;;2.97;;
72649;SDS011;61467;50.674;4.618;2023-08-30T07:30:32;7.85;;;3.20;;
72649;SDS011;61467;50.674;4.618;2023-08-30T07:33:00;9.30;;;3.08;;
72649;SDS011;61467;50.674;4.618;2023-08-30T07:35:28;8.13;;;3.43;;
72649;SDS011;61467;50.674;4.618;2023-08-30T07:37:54;9.55;;;3.53;;
72649;SDS011;61467;50.674;4.618;2023-08-30T07:40:21;7.72;;;2.95;;
72649;SDS011;61467;50.674;4.618;2023-08-30T07:42:51;7.80;;;3.30;;
72649;SDS011;61467;50.674;4.618;2023-08-30T07:45:19;9.18;;;3.70;;
72649;SDS011;61467;50.674;4.618;2023-08-30T07:47:46;8.27;;;3.90;;
72649;SDS011;61467;50.674;4.618;2023-08-30T07:50:13;10.18;;;3.53;;
72649;SDS011;61467;50.674;4.618;2023-08-30T07:52:40;8.73;;;3.90;;
72649;SDS011;61467;50.674;4.618;2023-08-30T07:55:07;9.88;;;3.75;;
72649;SDS011;61467;50.674;4.618;2023-08-30T07:57:34;8.70;;;4.10;;
72649;SDS011;61467;50.674;4.618;2023-08-30T08:00:01;8.00;;;3.40;;
72649;SDS011;61467;50.674;4.618;2023-08-30T08:02:31;8.57;;;3.53;;
72649;SDS011;61467;50.674;4.618;2023-08-30T08:04:57;8.48;;;3.63;;
72649;SDS011;61467;50.674;4.618;2023-08-30T08:07:24;10.45;;;3.55;;
72649;SDS011;61467;50.674;4.618;2023-08-30T08:09:51;8.10;;;3.15;;
72649;SDS011;61467;50.674;4.618;2023-08-30T08:12:18;8.30;;;3.53;;
72649;SDS011;61467;50.674;4.618;2023-08-30T08:14:45;8.30;;;3.15;;
72649;SDS011;61467;50.674;4.618;2023-08-30T08:17:12;9.40;;;3.42;;
72649;SDS011;61467;50.674;4.618;2023-08-30T08:19:40;7.32;;;2.70;;
72649;SDS011;61467;50.674;4.618;2023-08-30T08:22:09;7.88;;;2.50;;
72649;SDS011;61467;50.674;4.618;2023-08-30T08:24:35;6.93;;;3.07;;
72649;SDS011;61467;50.674;4.618;2023-08-30T08:27:02;8.40;;;3.08;;
72649;SDS011;61467;50.674;4.618;2023-08-30T08:29:30;7.38;;;3.10;;
72649;SDS011;61467;50.674;4.618;2023-08-30T08:31:57;7.13;;;2.80;;
72649;SDS011;61467;50.674;4.618;2023-08-30T08:34:25;7.40;;;2.85;;
72649;SDS011;61467;50.674;4.618;2023-08-30T08:36:53;6.53;;;2.30;;
72649;SDS011;61467;50.674;4.618;2023-08-30T08:39:20;7.05;;;2.50;;
72649;SDS011;61467;50.674;4.618;2023-08-30T08:41:47;8.02;;;2.63;;
72649;SDS011;61467;50.674;4.618;2023-08-30T08:44:16;8.25;;;2.40;;
72649;SDS011;61467;50.674;4.618;2023-08-30T08:46:45;5.60;;;2.10;;
72649;SDS011;61467;50.674;4.618;2023-08-30T08:49:14;6.07;;;2.00;;
72649;SDS011;61467;50.674;4.618;2023-08-30T08:51:43;6.35;;;2.00;;
72649;SDS011;61467;50.674;4.618;2023-08-30T08:54:12;6.38;;;1.98;;
72649;SDS011;61467;50.674;4.618;2023-08-30T08:56:39;6.18;;;2.08;;
72649;SDS011;61467;50.674;4.618;2023-08-30T08:59:07;6.13;;;1.70;;
72649;SDS011;61467;50.674;4.618;2023-08-30T09:01:34;6.93;;;1.80;;
72649;SDS011;61467;50.674;4.618;2023-08-30T09:04:04;6.03;;;2.05;;
72649;SDS011;61467;50.674;4.618;2023-08-30T09:06:32;5.45;;;2.03;;
72649;SDS011;61467;50.674;4.618;2023-08-30T09:09:00;5.25;;;1.80;;
72649;SDS011;61467;50.674;4.618;2023-08-30T09:11:32;5.53;;;1.63;;
72649;SDS011;61467;50.674;4.618;2023-08-30T09:13:59;4.93;;;1.70;;
72649;SDS011;61467;50.674;4.618;2023-08-30T09:16:28;6.72;;;1.60;;
72649;SDS011;61467;50.674;4.618;2023-08-30T09:18:58;5.80;;;2.38;;
72649;SDS011;61467;50.674;4.618;2023-08-30T09:21:25;6.40;;;1.65;;
72649;SDS011;61467;50.674;4.618;2023-08-30T09:23:58;5.07;;;2.20;;
72649;SDS011;61467;50.674;4.618;2023-08-30T09:26:26;7.20;;;1.40;;
72649;SDS011;61467;50.674;4.618;2023-08-30T09:28:55;4.63;;;1.13;;
72649;SDS011;61467;50.674;4.618;2023-08-30T09:31:22;2.97;;;0.90;;
72649;SDS011;61467;50.674;4.618;2023-08-30T09:33:51;4.28;;;1.30;;
72649;SDS011;61467;50.674;4.618;2023-08-30T09:36:26;4.72;;;1.25;;
72649;SDS011;61467;50.674;4.618;2023-08-30T09:38:58;3.77;;;1.13;;
72649;SDS011;61467;50.674;4.618;2023-08-30T09:41:25;3.97;;;0.98;;
72649;SDS011;61467;50.674;4.618;2023-08-30T09:43:52;3.92;;;1.17;;
72649;SDS011;61467;50.674;4.618;2023-08-30T09:46:22;3.58;;;1.20;;
72649;SDS011;61467;50.674;4.618;2023-08-30T09:48:49;4.40;;;1.10;;
72649;SDS011;61467;50.674;4.618;2023-08-30T09:51:16;3.57;;;0.90;;
72649;SDS011;61467;50.674;4.618;2023-08-30T09:53:46;3.47;;;0.93;;
72649;SDS011;61467;50.674;4.618;2023-08-30T09:56:16;3.00;;;0.70;;
72649;SDS011;61467;50.674;4.618;2023-08-30T09:58:44;3.45;;;0.93;;
72649;SDS011;61467;50.674;4.618;2023-08-30T10:01:11;3.63;;;0.95;;
72649;SDS011;61467;50.674;4.618;2023-08-30T10:03:39;3.00;;;0.90;;
72649;SDS011;61467;50.674;4.618;2023-08-30T10:06:07;3.33;;;0.80;;
72649;SDS011;61467;50.674;4.618;2023-08-30T10:08:34;5.18;;;1.77;;
72649;SDS011;61467;50.674;4.618;2023-08-30T10:11:04;3.85;;;1.00;;
72649;SDS011;61467;50.674;4.618;2023-08-30T10:13:33;3.95;;;1.17;;
72649;SDS011;61467;50.674;4.618;2023-08-30T10:16:01;2.93;;;0.70;;
72649;SDS011;61467;50.674;4.618;2023-08-30T10:18:32;3.60;;;0.90;;
72649;SDS011;61467;50.674;4.618;2023-08-30T10:21:05;4.50;;;0.90;;
72649;SDS011;61467;50.674;4.618;2023-08-30T10:23:34;4.10;;;1.00;;
72649;SDS011;61467;50.674;4.618;2023-08-30T10:26:03;4.07;;;1.10;;
72649;SDS011;61467;50.674;4.618;2023-08-30T10:28:31;3.83;;;1.10;;
72649;SDS011;61467;50.674;4.618;2023-08-30T10:31:00;4.68;;;1.10;;
72649;SDS011;61467;50.674;4.618;2023-08-30T10:33:28;4.15;;;1.15;;
72649;SDS011;61467;50.674;4.618;2023-08-30T10:36:02;4.57;;;1.30;;
72649;SDS011;61467;50.674;4.618;2023-08-30T10:38:32;4.43;;;1.30;;
72649;SDS011;61467;50.674;4.618;2023-08-30T10:41:06;6.37;;;1.80;;
72649;SDS011;61467;50.674;4.618;2023-08-30T10:43:34;4.85;;;1.50;;
72649;SDS011;61467;50.674;4.618;2023-08-30T10:46:03;5.50;;;1.73;;
72649;SDS011;61467;50.674;4.618;2023-08-30T10:48:35;5.13;;;1.52;;
72649;SDS011;61467;50.674;4.618;2023-08-30T10:51:06;5.97;;;2.00;;
72649;SDS011;61467;50.674;4.618;2023-08-30T10:53:54;5.43;;;1.60;;
72649;SDS011;61467;50.674;4.618;2023-08-30T10:56:26;5.88;;;2.35;;
72649;SDS011;61467;50.674;4.618;2023-08-30T10:58:54;7.00;;;2.53;;
72649;SDS011;61467;50.674;4.618;2023-08-30T11:01:20;6.20;;;2.08;;
72649;SDS011;61467;50.674;4.618;2023-08-30T11:03:51;5.70;;;2.47;;
72649;SDS011;61467;50.674;4.618;2023-08-30T11:06:20;7.87;;;2.93;;
72649;SDS011;61467;50.674;4.618;2023-08-30T11:08:48;7.13;;;2.97;;
72649;SDS011;61467;50.674;4.618;2023-08-30T11:11:15;7.43;;;3.17;;
72649;SDS011;61467;50.674;4.618;2023-08-30T11:13:42;6.93;;;3.13;;
72649;SDS011;61467;50.674;4.618;2023-08-30T11:16:09;7.13;;;3.22;;
72649;SDS011;61467;50.674;4.618;2023-08-30T11:18:37;7.20;;;2.90;;
72649;SDS011;61467;50.674;4.618;2023-08-30T11:21:04;8.15;;;3.40;;
72649;SDS011;61467;50.674;4.618;2023-08-30T11:23:34;7.47;;;3.50;;
72649;SDS011;61467;50.674;4.618;2023-08-30T11:26:01;8.68;;;3.17;;
72649;SDS011;61467;50.674;4.618;2023-08-30T11:28:30;6.80;;;3.33;;
72649;SDS011;61467;50.674;4.618;2023-08-30T11:30:56;7.30;;;3.23;;
72649;SDS011;61467;50.674;4.618;2023-08-30T11:33:24;9.35;;;3.80;;
72649;SDS011;61467;50.674;4.618;2023-08-30T11:35:51;8.00;;;3.70;;
72649;SDS011;61467;50.674;4.618;2023-08-30T11:38:19;11.80;;;4.32;;
72649;SDS011;61467;50.674;4.618;2023-08-30T11:40:49;10.82;;;4.32;;
72649;SDS011;61467;50.674;4.618;2023-08-30T11:43:17;8.73;;;4.00;;
72649;SDS011;61467;50.674;4.618;2023-08-30T11:45:44;10.60;;;4.40;;
72649;SDS011;61467;50.674;4.618;2023-08-30T11:48:11;8.75;;;4.20;;
72649;SDS011;61467;50.674;4.618;2023-08-30T11:50:40;8.32;;;4.57;;
72649;SDS011;61467;50.674;4.618;2023-08-30T11:53:08;9.23;;;4.65;;
72649;SDS011;61467;50.674;4.618;2023-08-30T11:55:36;9.10;;;4.97;;
72649;SDS011;61467;50.674;4.618;2023-08-30T11:58:08;9.27;;;4.80;;
72649;SDS011;61467;50.674;4.618;2023-08-30T12:00:35;9.93;;;4.30;;
72649;SDS011;61467;50.674;4.618;2023-08-30T12:03:03;8.80;;;4.53;;
72649;SDS011;61467;50.674;4.618;2023-08-30T12:05:31;9.30;;;4.60;;
72649;SDS011;61467;50.674;4.618;2023-08-30T12:08:00;8.80;;;4.40;;
72649;SDS011;61467;50.674;4.618;2023-08-30T12:10:28;8.77;;;4.88;;
72649;SDS011;61467;50.674;4.618;2023-08-30T12:12:57;9.40;;;4.70;;
72649;SDS011;61467;50.674;4.618;2023-08-30T12:15:25;9.20;;;4.25;;
72649;SDS011;61467;50.674;4.618;2023-08-30T12:17:53;9.43;;;4.95;;
72649;SDS011;61467;50.674;4.618;2023-08-30T12:20:21;9.50;;;4.73;;
72649;SDS011;61467;50.674;4.618;2023-08-30T12:22:48;9.85;;;3.88;;
72649;SDS011;61467;50.674;4.618;2023-08-30T12:25:16;8.30;;;3.80;;
72649;SDS011;61467;50.674;4.618;2023-08-30T12:27:44;7.68;;;2.70;;
72649;SDS011;61467;50.674;4.618;2023-08-30T12:30:11;9.23;;;3.22;;
72649;SDS011;61467;50.674;4.618;2023-08-30T12:32:40;7.67;;;2.57;;
72649;SDS011;61467;50.674;4.618;2023-08-30T12:35:07;11.27;;;2.00;;
72649;SDS011;61467;50.674;4.618;2023-08-30T12:37:35;8.32;;;2.13;;
72649;SDS011;61467;50.674;4.618;2023-08-30T12:40:02;8.90;;;2.50;;
72649;SDS011;61467;50.674;4.618;2023-08-30T12:42:29;7.68;;;2.25;;
72649;SDS011;61467;50.674;4.618;2023-08-30T12:44:56;9.50;;;2.53;;
72649;SDS011;61467;50.674;4.618;2023-08-30T12:47:23;10.07;;;2.38;;
72649;SDS011;61467;50.674;4.618;2023-08-30T12:49:51;8.63;;;2.50;;
72649;SDS011;61467;50.674;4.618;2023-08-30T12:52:18;7.93;;;2.30;;
72649;SDS011;61467;50.674;4.618;2023-08-30T12:54:45;9.15;;;2.50;;
72649;SDS011;61467;50.674;4.618;2023-08-30T12:57:13;11.20;;;2.43;;
72649;SDS011;61467;50.674;4.618;2023-08-30T12:59:40;12.30;;;2.15;;
72649;SDS011;61467;50.674;4.618;2023-08-30T13:02:06;7.45;;;1.70;;
72649;SDS011;61467;50.674;4.618;2023-08-30T13:04:34;8.65;;;2.22;;
72649;SDS011;61467;50.674;4.618;2023-08-30T13:07:04;8.38;;;2.00;;
72649;SDS011;61467;50.674;4.618;2023-08-30T13:09:31;7.63;;;1.77;;
72649;SDS011;61467;50.674;4.618;2023-08-30T13:11:58;10.25;;;2.08;;
72649;SDS011;61467;50.674;4.618;2023-08-30T13:14:25;8.68;;;1.73;;
72649;SDS011;61467;50.674;4.618;2023-08-30T13:16:52;8.23;;;2.03;;
72649;SDS011;61467;50.674;4.618;2023-08-30T13:19:19;8.07;;;1.83;;
72649;SDS011;61467;50.674;4.618;2023-08-30T13:21:46;9.07;;;1.80;;
72649;SDS011;61467;50.674;4.618;2023-08-30T13:24:14;8.75;;;1.50;;
72649;SDS011;61467;50.674;4.618;2023-08-30T13:26:41;7.35;;;1.77;;
72649;SDS011;61467;50.674;4.618;2023-08-30T13:29:08;9.13;;;1.85;;
72649;SDS011;61467;50.674;4.618;2023-08-30T13:31:55;8.18;;;1.40;;
72649;SDS011;61467;50.674;4.618;2023-08-30T13:34:22;8.67;;;1.70;;
72649;SDS011;61467;50.674;4.618;2023-08-30T13:36:49;7.03;;;1.30;;
72649;SDS011;61467;50.674;4.618;2023-08-30T13:39:17;9.02;;;1.95;;
72649;SDS011;61467;50.674;4.618;2023-08-30T13:41:45;7.82;;;1.60;;
72649;SDS011;61467;50.674;4.618;2023-08-30T13:44:12;9.00;;;1.50;;
72649;SDS011;61467;50.674;4.618;2023-08-30T13:46:39;6.17;;;1.77;;
72649;SDS011;61467;50.674;4.618;2023-08-30T13:49:06;8.77;;;1.60;;
72649;SDS011;61467;50.674;4.618;2023-08-30T13:51:33;6.43;;;1.52;;
72649;SDS011;61467;50.674;4.618;2023-08-30T13:54:00;5.53;;;1.70;;
72649;SDS011;61467;50.674;4.618;2023-08-30T13:56:28;5.40;;;1.38;;
72649;SDS011;61467;50.674;4.618;2023-08-30T13:58:55;6.17;;;1.13;;
72649;SDS011;61467;50.674;4.618;2023-08-30T14:01:22;4.22;;;1.00;;
72649;SDS011;61467;50.674;4.618;2023-08-30T14:03:49;7.20;;;1.40;;
72649;SDS011;61467;50.674;4.618;2023-08-30T14:06:16;5.13;;;0.90;;
72649;SDS011;61467;50.674;4.618;2023-08-30T14:08:44;5.32;;;1.00;;
72649;SDS011;61467;50.674;4.618;2023-08-30T14:11:11;4.83;;;0.93;;
72649;SDS011;61467;50.674;4.618;2023-08-30T14:13:40;7.15;;;1.50;;
72649;SDS011;61467;50.674;4.618;2023-08-30T14:16:07;4.32;;;1.10;;
72649;SDS011;61467;50.674;4.618;2023-08-30T14:18:34;7.72;;;1.10;;
72649;SDS011;61467;50.674;4.618;2023-08-30T14:21:00;5.15;;;1.35;;
72649;SDS011;61467;50.674;4.618;2023-08-30T14:23:28;7.70;;;1.20;;
72649;SDS011;61467;50.674;4.618;2023-08-30T14:25:56;5.65;;;1.08;;
72649;SDS011;61467;50.674;4.618;2023-08-30T14:28:23;4.95;;;0.98;;
72649;SDS011;61467;50.674;4.618;2023-08-30T14:30:51;9.15;;;1.15;;
72649;SDS011;61467;50.674;4.618;2023-08-30T14:33:19;5.82;;;1.10;;
72649;SDS011;61467;50.674;4.618;2023-08-30T14:35:46;6.40;;;1.17;;
72649;SDS011;61467;50.674;4.618;2023-08-30T14:38:13;5.57;;;0.93;;
72649;SDS011;61467;50.674;4.618;2023-08-30T14:40:42;5.05;;;1.00;;
72649;SDS011;61467;50.674;4.618;2023-08-30T14:43:10;6.47;;;1.15;;
72649;SDS011;61467;50.674;4.618;2023-08-30T14:45:40;7.03;;;1.50;;
72649;SDS011;61467;50.674;4.618;2023-08-30T14:48:08;7.77;;;1.47;;